createdAt,value
2022-09-20T00:00:36.468Z,8.34
2022-09-20T00:01:36.541Z,8.27
2022-09-20T00:02:36.446Z,8.29
2022-09-20T00:03:36.450Z,8.38
2022-09-20T00:04:36.491Z,8.33
2022-09-20T00:05:36.429Z,8.42
2022-09-20T00:06:36.453Z,8.33
2022-09-20T00:07:36.415Z,8.30
2022-09-20T00:08:36.407Z,8.49
2022-09-20T00:09:36.399Z,8.45
2022-09-20T00:10:36.392Z,8.47
2022-09-20T00:11:36.414Z,8.41
2022-09-20T00:12:36.372Z,8.31
2022-09-20T00:13:36.371Z,8.18
2022-09-20T00:14:36.358Z,8.15
2022-09-20T00:15:36.384Z,8.16
2022-09-20T00:16:36.428Z,8.20
2022-09-20T00:17:36.334Z,8.18
2022-09-20T00:18:36.331Z,8.13
2022-09-20T00:19:36.322Z,8.16
2022-09-20T00:20:36.380Z,8.15
2022-09-20T00:21:36.337Z,8.12
2022-09-20T00:22:36.287Z,8.13
2022-09-20T00:23:36.281Z,8.16
2022-09-20T00:24:36.268Z,8.15
2022-09-20T00:25:36.329Z,8.13
2022-09-20T00:26:36.260Z,8.16
2022-09-20T00:27:36.250Z,8.09
2022-09-20T00:28:36.237Z,8.11
2022-09-20T00:29:36.234Z,8.21
2022-09-20T00:30:36.254Z,8.20
2022-09-20T00:31:36.257Z,8.18
2022-09-20T00:32:36.209Z,8.02
2022-09-20T00:33:36.350Z,8.13
2022-09-20T00:34:36.193Z,8.15
2022-09-20T00:35:36.182Z,8.15
2022-09-20T00:36:36.213Z,8.23
2022-09-20T00:37:36.168Z,8.24
2022-09-20T00:38:36.168Z,8.18
2022-09-20T00:39:36.145Z,8.13
2022-09-20T00:40:36.242Z,8.21
2022-09-20T00:41:36.169Z,8.29
2022-09-20T00:42:36.127Z,8.27
2022-09-20T00:43:36.123Z,8.18
2022-09-20T00:44:36.110Z,8.23
2022-09-20T00:45:36.181Z,8.24
2022-09-20T00:46:36.134Z,8.33
2022-09-20T00:47:36.090Z,8.34
2022-09-20T00:48:36.079Z,8.42
2022-09-20T00:49:36.062Z,8.54
2022-09-20T00:50:36.058Z,8.42
2022-09-20T00:51:36.077Z,8.45
2022-09-20T00:52:36.050Z,8.45
2022-09-20T00:53:36.035Z,8.45
2022-09-20T00:54:36.022Z,8.49
2022-09-20T00:55:36.017Z,8.54
2022-09-20T00:56:36.110Z,8.51
2022-09-20T00:57:36.005Z,8.55
2022-09-20T00:58:35.994Z,8.66
2022-09-20T00:59:35.980Z,8.62
2022-09-20T01:00:35.974Z,8.70
2022-09-20T01:01:36.039Z,8.64
2022-09-20T01:02:36.011Z,8.69
2022-09-20T01:03:35.952Z,8.67
2022-09-20T01:04:35.940Z,8.77
2022-09-20T01:05:35.934Z,8.77
2022-09-20T01:06:35.962Z,8.85
2022-09-20T01:07:35.920Z,8.81
2022-09-20T01:08:35.917Z,8.84
2022-09-20T01:09:35.910Z,8.80
2022-09-20T01:10:35.897Z,8.91
2022-09-20T01:11:35.917Z,8.96
2022-09-20T01:12:35.876Z,9.02
2022-09-20T01:13:35.876Z,8.95
2022-09-20T01:14:35.862Z,9.05
2022-09-20T01:15:35.855Z,8.98
2022-09-20T01:16:35.960Z,9.06
2022-09-20T01:17:35.843Z,8.90
2022-09-20T01:18:35.828Z,9.05
2022-09-20T01:19:35.819Z,9.02
2022-09-20T01:20:35.815Z,8.98
2022-09-20T01:21:35.840Z,8.98
2022-09-20T01:22:35.803Z,8.93
2022-09-20T01:23:35.797Z,8.96
2022-09-20T01:24:35.781Z,9.06
2022-09-20T01:25:35.773Z,9.05
2022-09-20T01:26:35.799Z,9.16
2022-09-20T01:27:35.757Z,9.10
2022-09-20T01:28:35.753Z,9.11
2022-09-20T01:29:35.735Z,9.05
2022-09-20T01:30:35.731Z,9.03
2022-09-20T01:31:35.801Z,9.10
2022-09-20T01:32:35.715Z,9.03
2022-09-20T01:33:35.707Z,9.08
2022-09-20T01:34:35.704Z,9.14
2022-09-20T01:35:35.709Z,9.15
2022-09-20T01:36:35.715Z,9.18
2022-09-20T01:37:35.686Z,9.16
2022-09-20T01:38:35.670Z,9.18
2022-09-20T01:39:35.663Z,9.21
2022-09-20T01:40:35.699Z,9.16
2022-09-20T01:41:35.670Z,9.24
2022-09-20T01:42:35.652Z,9.29
2022-09-20T01:43:35.623Z,9.24
2022-09-20T01:44:35.608Z,9.37
2022-09-20T01:45:35.678Z,9.32
2022-09-20T01:46:35.628Z,9.39
2022-09-20T01:47:35.587Z,9.44
2022-09-20T01:48:35.575Z,9.46
2022-09-20T01:49:35.573Z,9.36
2022-09-20T01:50:35.564Z,9.39
2022-09-20T01:51:35.582Z,9.43
2022-09-20T01:52:35.542Z,9.42
2022-09-20T01:53:35.536Z,9.33
2022-09-20T01:54:35.529Z,9.42
2022-09-20T01:55:35.524Z,9.39
2022-09-20T01:56:35.539Z,9.40
2022-09-20T01:57:35.501Z,9.37
2022-09-20T01:58:35.503Z,9.39
2022-09-20T01:59:35.488Z,9.39
2022-09-20T02:00:35.491Z,9.42
2022-09-20T02:01:35.560Z,9.40
2022-09-20T02:02:35.499Z,9.32
2022-09-20T02:03:35.458Z,9.39
2022-09-20T02:04:35.449Z,9.34
2022-09-20T02:05:35.436Z,9.39
2022-09-20T02:06:35.460Z,9.39
2022-09-20T02:07:35.428Z,9.37
2022-09-20T02:08:35.427Z,9.32
2022-09-20T02:09:35.407Z,9.24
2022-09-20T02:10:35.405Z,9.34
2022-09-20T02:11:35.423Z,9.39
2022-09-20T02:12:35.384Z,9.33
2022-09-20T02:13:35.376Z,9.39
2022-09-20T02:14:35.370Z,9.43
2022-09-20T02:15:35.357Z,9.46
2022-09-20T02:16:35.457Z,9.36
2022-09-20T02:17:35.353Z,9.40
2022-09-20T02:18:35.330Z,9.47
2022-09-20T02:19:35.333Z,9.43
2022-09-20T02:20:35.317Z,9.44
2022-09-20T02:21:35.341Z,9.51
2022-09-20T02:22:35.301Z,9.46
2022-09-20T02:23:35.289Z,9.47
2022-09-20T02:24:35.283Z,9.37
2022-09-20T02:25:35.276Z,9.46
2022-09-20T02:26:35.296Z,9.43
2022-09-20T02:27:35.257Z,9.44
2022-09-20T02:28:35.258Z,9.44
2022-09-20T02:29:35.243Z,9.36
2022-09-20T02:30:35.235Z,9.33
2022-09-20T02:31:35.320Z,9.49
2022-09-20T02:32:35.221Z,9.29
2022-09-20T02:33:35.209Z,9.28
2022-09-20T02:34:35.203Z,9.28
2022-09-20T02:35:35.200Z,9.28
2022-09-20T02:36:35.227Z,9.22
2022-09-20T02:37:35.178Z,9.11
2022-09-20T02:38:35.172Z,8.98
2022-09-20T02:39:35.163Z,9.02
2022-09-20T02:40:35.224Z,8.95
2022-09-20T02:41:35.177Z,8.85
2022-09-20T02:42:35.144Z,8.87
2022-09-20T02:43:35.130Z,8.84
2022-09-20T02:44:35.125Z,8.75
2022-09-20T02:45:35.222Z,8.78
2022-09-20T02:46:35.145Z,8.72
2022-09-20T02:47:35.101Z,8.66
2022-09-20T02:48:35.088Z,8.66
2022-09-20T02:49:35.078Z,8.54
2022-09-20T02:50:35.074Z,8.54
2022-09-20T02:51:35.098Z,8.29
2022-09-20T02:52:35.053Z,8.27
2022-09-20T02:53:35.052Z,8.26
2022-09-20T02:54:35.042Z,8.18
2022-09-20T02:55:35.036Z,8.36
2022-09-20T02:56:35.056Z,8.33
2022-09-20T02:57:35.019Z,8.38
2022-09-20T02:58:35.019Z,8.42
2022-09-20T02:59:35.002Z,8.36
2022-09-20T03:00:34.994Z,8.39
2022-09-20T03:01:35.036Z,8.24
2022-09-20T03:02:35.061Z,8.21
2022-09-20T03:03:34.960Z,8.11
2022-09-20T03:04:34.965Z,8.16
2022-09-20T03:05:34.949Z,8.12
2022-09-20T03:06:34.944Z,8.12
2022-09-20T03:07:34.961Z,8.11
2022-09-20T03:08:34.932Z,8.13
2022-09-20T03:09:34.909Z,8.09
2022-09-20T03:10:34.908Z,8.13
2022-09-20T03:11:34.899Z,8.27
2022-09-20T03:12:34.913Z,8.29
2022-09-20T03:13:34.881Z,8.30
2022-09-20T03:14:34.880Z,8.33
2022-09-20T03:15:34.881Z,8.34
2022-09-20T03:16:34.901Z,8.27
2022-09-20T03:17:34.883Z,8.30
2022-09-20T03:18:34.852Z,8.38
2022-09-20T03:19:34.837Z,8.30
2022-09-20T03:20:34.827Z,8.27
2022-09-20T03:21:34.823Z,8.31
2022-09-20T03:22:34.825Z,8.26
2022-09-20T03:23:35.807Z,8.27
2022-09-20T03:24:34.802Z,8.33
2022-09-20T03:25:34.788Z,8.24
2022-09-20T03:26:34.784Z,8.23
2022-09-20T03:27:34.803Z,8.30
2022-09-20T03:28:34.766Z,8.27
2022-09-20T03:29:34.760Z,8.27
2022-09-20T03:30:34.745Z,8.29
2022-09-20T03:31:34.821Z,8.27
2022-09-20T03:32:34.758Z,8.34
2022-09-20T03:33:34.727Z,8.30
2022-09-20T03:34:34.715Z,8.41
2022-09-20T03:35:34.707Z,8.38
2022-09-20T03:36:34.695Z,8.34
2022-09-20T03:37:34.723Z,8.34
2022-09-20T03:38:34.689Z,8.34
2022-09-20T03:39:34.691Z,8.26
2022-09-20T03:40:34.723Z,8.39
2022-09-20T03:41:34.667Z,8.29
2022-09-20T03:42:34.691Z,8.30
2022-09-20T03:43:34.651Z,8.34
2022-09-20T03:44:34.648Z,8.39
2022-09-20T03:45:34.676Z,8.47
2022-09-20T03:46:34.628Z,8.45
2022-09-20T03:47:34.637Z,8.45
2022-09-20T03:48:34.603Z,8.62
2022-09-20T03:49:34.601Z,8.59
2022-09-20T03:50:34.595Z,8.69
2022-09-20T03:51:34.576Z,8.66
2022-09-20T03:52:35.604Z,8.60
2022-09-20T03:53:34.566Z,8.78
2022-09-20T03:54:34.557Z,8.70
2022-09-20T03:55:34.547Z,8.64
2022-09-20T03:56:34.544Z,8.72
2022-09-20T03:57:34.562Z,8.69
2022-09-20T03:58:34.528Z,8.60
2022-09-20T03:59:34.517Z,8.72
2022-09-20T04:00:34.508Z,8.63
2022-09-20T04:01:34.545Z,8.78
2022-09-20T04:02:34.623Z,8.70
2022-09-20T04:03:34.479Z,8.73
2022-09-20T04:04:34.474Z,8.78
2022-09-20T04:05:34.460Z,8.87
2022-09-20T04:06:34.453Z,8.87
2022-09-20T04:07:34.473Z,8.84
2022-09-20T04:08:38.104Z,8.95
2022-09-20T04:09:36.428Z,8.85
2022-09-20T04:10:34.412Z,8.87
2022-09-20T04:11:34.413Z,8.87
2022-09-20T04:12:34.433Z,8.82
2022-09-20T04:13:34.402Z,8.88
2022-09-20T04:14:34.381Z,9.03
2022-09-20T04:15:34.384Z,8.93
2022-09-20T04:16:34.448Z,9.02
2022-09-20T04:17:34.398Z,9.03
2022-09-20T04:18:34.360Z,9.06
2022-09-20T04:19:34.348Z,9.05
2022-09-20T04:20:34.344Z,9.02
2022-09-20T04:21:34.336Z,9.02
2022-09-20T04:22:34.350Z,9.19
2022-09-20T04:23:34.313Z,9.15
2022-09-20T04:24:34.304Z,9.15
2022-09-20T04:25:34.298Z,9.19
2022-09-20T04:26:34.295Z,9.16
2022-09-20T04:27:34.314Z,9.22
2022-09-20T04:28:34.272Z,9.29
2022-09-20T04:29:34.264Z,9.25
2022-09-20T04:30:34.256Z,9.24
2022-09-20T04:31:34.295Z,9.25
2022-09-20T04:32:34.270Z,9.24
2022-09-20T04:33:34.227Z,9.18
2022-09-20T04:34:34.210Z,9.19
2022-09-20T04:35:35.209Z,9.24
2022-09-20T04:36:34.210Z,9.19
2022-09-20T04:37:34.225Z,9.26
2022-09-20T04:38:34.182Z,9.19
2022-09-20T04:39:34.181Z,9.22
2022-09-20T04:40:34.224Z,9.32
2022-09-20T04:41:34.164Z,9.33
2022-09-20T04:42:34.187Z,9.33
2022-09-20T04:43:34.141Z,9.32
2022-09-20T04:44:34.134Z,9.26
2022-09-20T04:45:34.189Z,9.28
2022-09-20T04:46:34.119Z,9.32
2022-09-20T04:47:34.144Z,9.34
2022-09-20T04:48:34.102Z,9.42
2022-09-20T04:49:34.098Z,9.29
2022-09-20T04:50:34.085Z,9.39
2022-09-20T04:51:34.077Z,9.42
2022-09-20T04:52:34.063Z,9.39
2022-09-20T04:53:34.089Z,9.42
2022-09-20T04:54:34.052Z,9.34
2022-09-20T04:55:34.050Z,9.39
2022-09-20T04:56:34.038Z,9.39
2022-09-20T04:57:34.032Z,9.42
2022-09-20T04:58:34.047Z,9.46
2022-09-20T04:59:34.011Z,9.39
2022-09-20T05:00:33.999Z,9.43
2022-09-20T05:01:34.047Z,9.46
2022-09-20T05:02:34.041Z,9.36
2022-09-20T05:03:34.004Z,9.40
2022-09-20T05:04:33.971Z,9.42
2022-09-20T05:05:33.964Z,9.43
2022-09-20T05:06:33.955Z,9.51
2022-09-20T05:07:33.948Z,9.52
2022-09-20T05:08:33.959Z,9.49
2022-09-20T05:09:33.929Z,9.47
2022-09-20T05:10:33.924Z,9.47
2022-09-20T05:11:33.915Z,9.54
2022-09-20T05:12:33.909Z,9.55
2022-09-20T05:13:33.921Z,9.57
2022-09-20T05:14:33.893Z,9.61
2022-09-20T05:15:33.883Z,9.65
2022-09-20T05:16:33.897Z,9.65
2022-09-20T05:17:33.865Z,9.70
2022-09-20T05:18:33.885Z,9.69
2022-09-20T05:19:33.844Z,9.69
2022-09-20T05:20:33.840Z,9.67
2022-09-20T05:21:33.831Z,9.72
2022-09-20T05:22:33.820Z,9.77
2022-09-20T05:23:33.849Z,9.72
2022-09-20T05:24:33.805Z,9.77
2022-09-20T05:25:33.793Z,9.76
2022-09-20T05:26:33.793Z,9.77
2022-09-20T05:27:33.782Z,9.83
2022-09-20T05:28:33.830Z,9.85
2022-09-20T05:29:33.767Z,9.88
2022-09-20T05:30:33.781Z,9.85
2022-09-20T05:31:33.919Z,9.77
2022-09-20T05:32:33.732Z,9.88
2022-09-20T05:33:33.769Z,9.83
2022-09-20T05:34:33.743Z,9.90
2022-09-20T05:35:33.713Z,9.85
2022-09-20T05:36:34.756Z,9.88
2022-09-20T05:37:34.698Z,10.00
2022-09-20T05:38:33.727Z,9.90
2022-09-20T05:39:33.691Z,9.97
2022-09-20T05:40:33.700Z,10.00
2022-09-20T05:41:33.668Z,10.02
2022-09-20T05:42:33.653Z,10.08
2022-09-20T05:43:33.685Z,10.02
2022-09-20T05:44:33.641Z,10.09
2022-09-20T05:45:33.684Z,9.98
2022-09-20T05:46:33.634Z,10.10
2022-09-20T05:47:33.621Z,10.08
2022-09-20T05:48:33.688Z,10.01
2022-09-20T05:49:33.598Z,10.08
2022-09-20T05:50:33.598Z,10.00
2022-09-20T05:51:33.590Z,10.08
2022-09-20T05:52:33.578Z,10.15
2022-09-20T05:53:33.596Z,10.12
2022-09-20T05:54:33.610Z,10.12
2022-09-20T05:55:33.551Z,10.27
2022-09-20T05:56:33.547Z,10.30
2022-09-20T05:57:33.537Z,10.33
2022-09-20T05:58:33.560Z,10.37
2022-09-20T05:59:33.515Z,10.43
2022-09-20T06:00:33.509Z,10.53
2022-09-20T06:01:33.539Z,10.46
2022-09-20T06:02:33.542Z,10.45
2022-09-20T06:03:33.483Z,10.43
2022-09-20T06:04:33.516Z,10.40
2022-09-20T06:05:33.475Z,10.43
2022-09-20T06:06:33.464Z,10.40
2022-09-20T06:07:33.460Z,10.30
2022-09-20T06:08:33.450Z,10.38
2022-09-20T06:09:33.487Z,10.37
2022-09-20T06:10:33.432Z,10.37
2022-09-20T06:11:33.424Z,10.40
2022-09-20T06:12:33.413Z,10.53
2022-09-20T06:13:33.396Z,10.49
2022-09-20T06:14:33.427Z,10.71
2022-09-20T06:15:33.386Z,10.59
2022-09-20T06:16:33.443Z,10.59
2022-09-20T06:17:33.364Z,10.64
2022-09-20T06:18:33.359Z,10.54
2022-09-20T06:19:33.380Z,10.56
2022-09-20T06:20:33.446Z,10.52
2022-09-20T06:21:33.333Z,10.54
2022-09-20T06:22:33.318Z,10.41
2022-09-20T06:23:33.322Z,10.45
2022-09-20T06:24:33.342Z,10.54
2022-09-20T06:25:33.302Z,10.49
2022-09-20T06:26:33.289Z,10.54
2022-09-20T06:27:33.285Z,10.56
2022-09-20T06:28:33.280Z,10.60
2022-09-20T06:29:33.287Z,10.67
2022-09-20T06:30:33.306Z,10.65
2022-09-20T06:31:33.248Z,10.67
2022-09-20T06:32:33.250Z,10.64
2022-09-20T06:33:33.231Z,10.78
2022-09-20T06:34:33.263Z,10.75
2022-09-20T06:35:33.219Z,10.82
2022-09-20T06:36:33.209Z,10.82
2022-09-20T06:37:33.206Z,10.77
2022-09-20T06:38:33.221Z,10.72
2022-09-20T06:39:33.177Z,10.78
2022-09-20T06:40:33.223Z,10.89
2022-09-20T06:41:33.168Z,10.89
2022-09-20T06:42:33.166Z,10.90
2022-09-20T06:43:33.181Z,10.97
2022-09-20T06:44:33.148Z,11.00
2022-09-20T06:45:33.197Z,10.90
2022-09-20T06:46:33.133Z,10.95
2022-09-20T06:47:36.874Z,10.90
2022-09-20T06:48:35.143Z,10.97
2022-09-20T06:49:33.103Z,11.03
2022-09-20T06:50:33.096Z,11.11
2022-09-20T06:51:33.094Z,11.15
2022-09-20T06:52:33.077Z,11.19
2022-09-20T06:53:33.096Z,11.17
2022-09-20T06:54:33.062Z,11.08
2022-09-20T06:55:33.049Z,11.07
2022-09-20T06:56:34.051Z,11.00
2022-09-20T06:57:33.038Z,10.97
2022-09-20T06:58:33.056Z,11.03
2022-09-20T06:59:33.027Z,10.87
2022-09-20T07:00:33.017Z,10.95
2022-09-20T07:01:33.071Z,10.93
2022-09-20T07:02:33.018Z,10.85
2022-09-20T07:03:33.014Z,10.92
2022-09-20T07:04:32.978Z,10.95
2022-09-20T07:05:32.968Z,10.97
2022-09-20T07:06:32.963Z,11.04
2022-09-20T07:07:32.956Z,11.17
2022-09-20T07:08:32.976Z,11.26
2022-09-20T07:09:32.938Z,11.29
2022-09-20T07:10:32.929Z,11.29
2022-09-20T07:11:32.917Z,11.29
2022-09-20T07:12:32.917Z,11.30
2022-09-20T07:13:32.934Z,11.26
2022-09-20T07:14:32.898Z,11.04
2022-09-20T07:15:32.888Z,11.19
2022-09-20T07:16:32.945Z,11.17
2022-09-20T07:17:32.905Z,11.20
2022-09-20T07:18:32.863Z,11.30
2022-09-20T07:19:32.886Z,11.19
2022-09-20T07:20:32.862Z,11.28
2022-09-20T07:21:32.844Z,11.23
2022-09-20T07:22:32.833Z,11.35
2022-09-20T07:23:32.825Z,11.38
2022-09-20T07:24:32.845Z,11.44
2022-09-20T07:25:32.807Z,11.40
2022-09-20T07:26:32.807Z,11.44
2022-09-20T07:27:32.784Z,11.43
2022-09-20T07:28:32.777Z,11.56
2022-09-20T07:29:32.798Z,11.47
2022-09-20T07:30:32.770Z,11.50
2022-09-20T07:31:32.967Z,11.59
2022-09-20T07:32:32.800Z,11.61
2022-09-20T07:33:32.861Z,11.66
2022-09-20T07:34:32.763Z,11.74
2022-09-20T07:35:32.844Z,11.72
2022-09-20T07:36:32.859Z,11.90
2022-09-20T07:37:36.874Z,11.74
2022-09-20T07:38:33.698Z,11.86
2022-09-20T07:39:32.714Z,11.76
2022-09-20T07:40:32.716Z,11.79
2022-09-20T07:41:32.676Z,11.83
2022-09-20T07:42:32.671Z,11.87
2022-09-20T07:43:32.650Z,11.83
2022-09-20T07:44:32.673Z,11.88
2022-09-20T07:45:32.652Z,12.02
2022-09-20T07:46:32.630Z,12.25
2022-09-20T07:47:32.620Z,12.50
2022-09-20T07:48:32.607Z,12.73
2022-09-20T07:49:33.631Z,12.97
2022-09-20T07:50:32.598Z,13.03
2022-09-20T07:51:32.593Z,13.06
2022-09-20T07:52:32.581Z,13.19
2022-09-20T07:53:32.570Z,13.16
2022-09-20T07:54:32.597Z,13.22
2022-09-20T07:55:32.557Z,13.26
2022-09-20T07:56:32.545Z,13.26
2022-09-20T07:57:32.538Z,13.22
2022-09-20T07:58:32.538Z,13.16
2022-09-20T07:59:32.556Z,13.00
2022-09-20T08:00:32.525Z,12.78
2022-09-20T08:01:32.530Z,12.78
2022-09-20T08:02:32.521Z,12.65
2022-09-20T08:03:32.493Z,12.53
2022-09-20T08:04:32.533Z,12.55
2022-09-20T08:05:32.473Z,12.46
2022-09-20T08:06:32.470Z,12.51
2022-09-20T08:07:32.463Z,12.61
2022-09-20T08:08:32.455Z,12.53
2022-09-20T08:09:32.475Z,12.60
2022-09-20T08:10:32.439Z,12.69
2022-09-20T08:11:32.434Z,12.68
2022-09-20T08:14:34.435Z,12.87
2022-09-20T08:15:32.395Z,13.03
2022-09-20T08:16:32.436Z,13.03
2022-09-20T08:17:32.375Z,13.11
2022-09-20T08:18:32.363Z,13.19
2022-09-20T08:19:32.415Z,13.06
2022-09-20T08:20:32.355Z,13.22
2022-09-20T08:21:32.349Z,13.18
2022-09-20T08:22:32.341Z,13.35
2022-09-20T08:23:32.329Z,13.49
2022-09-20T08:24:32.349Z,13.43
2022-09-20T08:25:32.318Z,13.50
2022-09-20T08:26:32.309Z,13.60
2022-09-20T08:27:32.297Z,13.67
2022-09-20T08:28:32.289Z,13.49
2022-09-20T08:29:32.308Z,13.38
2022-09-20T08:30:32.272Z,13.21
2022-09-20T08:31:32.297Z,13.11
2022-09-20T08:32:32.260Z,13.15
2022-09-20T08:33:32.244Z,12.98
2022-09-20T08:34:32.271Z,13.00
2022-09-20T08:35:32.230Z,12.80
2022-09-20T08:36:36.067Z,12.82
2022-09-20T08:37:33.213Z,12.80
2022-09-20T08:40:34.307Z,13.05
2022-09-20T08:41:32.182Z,13.08
2022-09-20T08:42:34.917Z,13.13
2022-09-20T08:43:34.200Z,13.22
2022-09-20T08:44:35.243Z,13.49
2022-09-20T08:45:34.956Z,13.63
2022-09-20T08:46:33.167Z,13.64
2022-09-20T08:47:32.134Z,13.75
2022-09-20T08:48:32.123Z,13.68
2022-09-20T08:49:32.138Z,13.55
2022-09-20T08:50:32.108Z,13.50
2022-09-20T08:51:32.095Z,13.43
2022-09-20T08:52:38.420Z,13.49
2022-09-20T08:53:34.075Z,13.56
2022-09-20T08:54:32.548Z,13.75
2022-09-20T08:55:39.699Z,13.72
2022-09-20T08:56:34.067Z,13.60
2022-09-20T08:57:32.052Z,13.46
2022-09-20T08:58:32.038Z,13.41
2022-09-20T08:59:32.063Z,13.31
2022-09-20T09:00:32.030Z,13.46
2022-09-20T09:01:32.065Z,13.52
2022-09-20T09:02:32.058Z,13.65
2022-09-20T09:03:31.994Z,13.67
2022-09-20T09:04:32.021Z,13.60
2022-09-20T09:05:31.982Z,13.43
2022-09-20T09:06:31.964Z,13.37
2022-09-20T09:07:31.957Z,13.26
2022-09-20T09:08:37.552Z,13.33
2022-09-20T09:09:37.805Z,13.29
2022-09-20T09:10:32.928Z,13.46
2022-09-20T09:11:31.919Z,13.46
2022-09-20T09:12:31.921Z,13.46
2022-09-20T09:13:31.963Z,13.49
2022-09-20T09:14:31.983Z,13.35
2022-09-20T09:15:31.884Z,13.47
2022-09-20T09:16:35.470Z,13.52
2022-09-20T09:17:32.877Z,13.45
2022-09-20T09:18:32.041Z,13.37
2022-09-20T09:19:34.856Z,13.30
2022-09-20T09:20:32.852Z,13.52
2022-09-20T09:21:31.838Z,13.56
2022-09-20T09:22:31.831Z,13.57
2022-09-20T09:23:31.931Z,13.63
2022-09-20T09:24:31.854Z,13.52
2022-09-20T09:25:31.814Z,13.72
2022-09-20T09:26:31.804Z,13.83
2022-09-20T09:27:31.792Z,13.90
2022-09-20T09:28:31.786Z,14.13
2022-09-20T09:29:34.904Z,14.15
2022-09-20T09:30:32.774Z,14.07
2022-09-20T09:31:31.890Z,13.96
2022-09-20T09:32:31.748Z,14.63
2022-09-20T09:33:31.742Z,14.87
2022-09-20T09:34:31.761Z,14.96
2022-09-20T09:35:31.732Z,15.17
2022-09-20T09:36:31.715Z,15.61
2022-09-20T09:37:31.753Z,15.83
2022-09-20T09:38:31.700Z,16.09
2022-09-20T09:39:31.715Z,16.12
2022-09-20T09:40:31.782Z,16.05
2022-09-20T09:41:31.673Z,15.91
2022-09-20T09:42:31.658Z,16.00
2022-09-20T09:43:31.652Z,15.91
2022-09-20T09:44:31.667Z,15.72
2022-09-20T09:45:31.738Z,15.57
2022-09-20T09:46:31.623Z,15.58
2022-09-20T09:47:31.668Z,15.37
2022-09-20T09:48:31.606Z,14.68
2022-09-20T09:49:31.603Z,14.70
2022-09-20T09:50:31.621Z,14.95
2022-09-20T09:51:31.591Z,14.87
2022-09-20T09:52:31.572Z,14.70
2022-09-20T09:53:31.567Z,14.69
2022-09-20T09:54:31.564Z,14.44
2022-09-20T09:55:31.584Z,14.55
2022-09-20T09:56:31.541Z,14.58
2022-09-20T09:57:31.537Z,14.59
2022-09-20T09:58:31.528Z,14.56
2022-09-20T09:59:31.526Z,14.56
2022-09-20T10:00:31.545Z,14.47
2022-09-20T10:01:33.530Z,14.40
2022-09-20T10:02:32.607Z,14.47
2022-09-20T10:03:31.486Z,14.56
2022-09-20T10:04:31.502Z,14.78
2022-09-20T10:05:31.472Z,14.89
2022-09-20T10:06:31.465Z,15.48
2022-09-20T10:07:31.454Z,15.43
2022-09-20T10:08:31.451Z,15.40
2022-09-20T10:09:31.465Z,15.44
2022-09-20T10:10:31.427Z,15.18
2022-09-20T10:11:31.418Z,15.22
2022-09-20T10:12:31.410Z,15.32
2022-09-20T10:13:31.407Z,15.61
2022-09-20T10:14:31.426Z,15.68
2022-09-20T10:15:31.386Z,15.55
2022-09-20T10:16:31.447Z,15.50
2022-09-20T10:17:31.369Z,15.48
2022-09-20T10:18:31.370Z,15.33
2022-09-20T10:19:31.380Z,15.39
2022-09-20T10:20:31.347Z,15.33
2022-09-20T10:21:31.343Z,15.40
2022-09-20T10:22:31.330Z,15.27
2022-09-20T10:23:58.649Z,15.54
2022-09-20T10:24:33.343Z,15.44
2022-09-20T10:25:31.306Z,15.72
2022-09-20T10:26:31.296Z,15.68
2022-09-20T10:27:31.284Z,15.85
2022-09-20T10:28:31.277Z,15.75
2022-09-20T10:29:31.292Z,15.85
2022-09-20T10:30:31.327Z,15.62
2022-09-20T10:31:31.288Z,15.42
2022-09-20T10:32:31.246Z,15.06
2022-09-20T10:33:31.235Z,14.85
2022-09-20T10:34:31.251Z,14.95
2022-09-20T10:35:31.218Z,14.97
2022-09-20T10:36:31.205Z,15.09
2022-09-20T10:37:31.198Z,15.03
2022-09-20T10:38:31.197Z,14.93
2022-09-20T10:39:31.209Z,15.06
2022-09-20T10:40:31.254Z,15.28
2022-09-20T10:41:31.168Z,15.50
2022-09-20T10:42:31.161Z,15.65
2022-09-20T10:43:31.152Z,16.01
2022-09-20T10:44:31.179Z,16.13
2022-09-20T10:45:59.578Z,16.29
2022-09-20T10:46:33.718Z,16.25
2022-09-20T10:47:32.179Z,16.39
2022-09-20T10:48:31.120Z,16.57
2022-09-20T10:49:31.130Z,16.57
2022-09-20T10:50:31.092Z,17.17
2022-09-20T10:51:31.081Z,18.48
2022-09-20T10:52:31.086Z,19.49
2022-09-20T10:53:31.070Z,20.43
2022-09-20T10:54:31.103Z,21.58
2022-09-20T10:55:31.075Z,22.56
2022-09-20T10:56:31.084Z,22.83
2022-09-20T10:57:31.044Z,22.99
2022-09-20T10:58:31.056Z,23.47
2022-09-20T10:59:31.094Z,23.63
2022-09-20T11:00:31.006Z,24.40
2022-09-20T11:01:31.030Z,24.66
2022-09-20T11:02:32.062Z,23.71
2022-09-20T11:03:30.976Z,22.93
2022-09-20T11:04:31.002Z,21.89
2022-09-20T11:05:30.960Z,19.41
2022-09-20T11:06:30.960Z,18.15
2022-09-20T11:07:30.955Z,17.31
2022-09-20T11:08:30.933Z,17.04
2022-09-20T11:09:32.013Z,16.71
2022-09-20T11:10:30.926Z,16.54
2022-09-20T11:11:30.922Z,16.17
2022-09-20T11:12:30.917Z,16.12
2022-09-20T11:13:30.912Z,16.02
2022-09-20T11:14:30.903Z,16.15
2022-09-20T11:15:30.916Z,16.09
2022-09-20T11:16:30.906Z,16.01
2022-09-20T11:17:30.876Z,15.88
2022-09-20T11:18:30.870Z,15.46
2022-09-20T11:19:30.854Z,15.25
2022-09-20T11:20:30.873Z,15.22
2022-09-20T11:21:30.848Z,15.07
2022-09-20T11:22:30.851Z,14.88
2022-09-20T11:23:30.827Z,14.93
2022-09-20T11:24:30.822Z,14.79
2022-09-20T11:25:30.841Z,14.63
2022-09-20T11:26:30.800Z,14.58
2022-09-20T11:27:30.794Z,14.45
2022-09-20T11:28:30.783Z,14.22
2022-09-20T11:29:30.778Z,14.07
2022-09-20T11:30:30.801Z,13.97
2022-09-20T11:31:30.817Z,13.83
2022-09-20T11:32:30.754Z,13.46
2022-09-20T11:33:30.752Z,13.29
2022-09-20T11:34:30.741Z,13.33
2022-09-20T11:35:30.760Z,13.47
2022-09-20T11:36:30.718Z,13.57
2022-09-20T11:37:30.712Z,13.39
2022-09-20T11:38:30.708Z,13.52
2022-09-20T11:39:30.724Z,13.57
2022-09-20T11:40:30.859Z,13.56
2022-09-20T11:41:30.681Z,13.80
2022-09-20T11:42:30.937Z,14.04
2022-09-20T11:43:30.707Z,13.95
2022-09-20T11:44:30.693Z,13.97
2022-09-20T11:45:30.715Z,13.97
2022-09-20T11:46:30.643Z,14.01
2022-09-20T11:47:53.304Z,14.08
2022-09-20T11:48:32.655Z,13.96
2022-09-20T11:49:30.640Z,13.95
2022-09-20T11:50:30.607Z,14.19
2022-09-20T11:51:30.602Z,14.10
2022-09-20T11:52:30.588Z,14.29
2022-09-20T11:53:35.852Z,14.28
2022-09-20T11:54:32.601Z,14.44
2022-09-20T11:55:30.559Z,14.55
2022-09-20T11:56:30.558Z,14.59
2022-09-20T11:57:30.561Z,14.81
2022-09-20T11:58:30.547Z,15.02
2022-09-20T11:59:30.562Z,15.48
2022-09-20T12:00:30.522Z,15.70
2022-09-20T12:01:30.508Z,15.91
2022-09-20T12:02:30.652Z,16.25
2022-09-20T12:03:30.599Z,16.68
2022-09-20T12:04:33.236Z,17.02
2022-09-20T12:05:31.506Z,16.89
2022-09-20T12:06:30.471Z,16.96
2022-09-20T12:07:30.456Z,17.39
2022-09-20T12:08:30.454Z,18.28
2022-09-20T12:09:30.448Z,18.59
2022-09-20T12:10:30.483Z,19.97
2022-09-20T12:11:30.423Z,20.97
2022-09-20T12:12:30.418Z,20.77
2022-09-20T12:13:30.404Z,20.99
2022-09-20T12:14:30.407Z,21.08
2022-09-20T12:15:30.419Z,21.40
2022-09-20T12:16:30.444Z,21.54
2022-09-20T12:17:30.384Z,21.30
2022-09-20T12:18:30.378Z,20.81
2022-09-20T12:19:30.367Z,20.69
2022-09-20T12:20:30.388Z,20.50
2022-09-20T12:21:30.346Z,20.28
2022-09-20T12:22:30.331Z,19.81
2022-09-20T12:23:31.334Z,19.46
2022-09-20T12:24:30.321Z,20.41
2022-09-20T12:25:30.340Z,20.14
2022-09-20T12:26:30.327Z,19.85
2022-09-20T12:27:30.293Z,19.52
2022-09-20T12:28:30.287Z,20.06
2022-09-20T12:29:30.280Z,20.59
2022-09-20T12:30:30.302Z,19.82
2022-09-20T12:31:30.320Z,19.12
2022-09-20T12:32:30.257Z,18.77
2022-09-20T12:33:30.247Z,18.26
2022-09-20T12:34:30.235Z,17.88
2022-09-20T12:35:30.274Z,17.53
2022-09-20T12:36:30.227Z,17.39
2022-09-20T12:37:30.232Z,17.22
2022-09-20T12:38:30.213Z,17.27
2022-09-20T12:39:30.537Z,17.08
2022-09-20T12:40:30.250Z,17.12
2022-09-20T12:41:30.181Z,17.04
2022-09-20T12:42:30.170Z,16.99
2022-09-20T12:43:31.166Z,16.99
2022-09-20T12:44:30.184Z,16.86
2022-09-20T12:45:30.240Z,16.75
2022-09-20T12:46:30.145Z,16.44
2022-09-20T12:47:30.126Z,16.38
2022-09-20T12:48:30.129Z,16.43
2022-09-20T12:49:30.114Z,16.43
2022-09-20T12:50:30.131Z,16.39
2022-09-20T12:51:30.094Z,16.36
2022-09-20T12:53:40.721Z,16.17
2022-09-20T12:54:40.741Z,16.16
2022-09-20T12:55:40.765Z,16.28
2022-09-20T12:56:40.726Z,16.28
2022-09-20T12:57:40.712Z,16.32
2022-09-20T12:58:40.713Z,16.32
2022-09-20T12:59:40.695Z,15.98
2022-09-20T13:00:40.788Z,16.06
2022-09-20T13:01:40.743Z,16.16
2022-09-20T13:02:40.679Z,16.08
2022-09-20T13:03:40.666Z,16.05
2022-09-20T13:04:40.663Z,16.09
2022-09-20T13:05:40.681Z,15.82
2022-09-20T13:06:40.643Z,15.80
2022-09-20T13:07:43.622Z,15.75
2022-09-20T13:08:40.623Z,15.85